createdAt,value
2018-03-17T00:00:59.745Z,1.95
2018-03-17T00:03:25.931Z,2.60
2018-03-17T00:05:52.119Z,2.90
2018-03-17T00:08:18.341Z,2.28
2018-03-17T00:10:44.588Z,2.92
2018-03-17T00:13:10.799Z,2.37
2018-03-17T00:15:37.027Z,2.42
2018-03-17T00:18:03.272Z,2.00
2018-03-17T00:20:29.435Z,3.28
2018-03-17T00:22:56.375Z,3.20
2018-03-17T00:25:23.340Z,3.80
2018-03-17T00:27:49.513Z,4.87
2018-03-17T00:30:15.769Z,3.37
2018-03-17T00:32:42.008Z,3.80
2018-03-17T00:35:08.944Z,3.90
2018-03-17T00:37:35.212Z,4.70
2018-03-17T00:40:01.423Z,4.90
2018-03-17T00:42:28.413Z,4.97
2018-03-17T00:44:54.676Z,7.20
2018-03-17T00:47:20.872Z,5.97
2018-03-17T00:49:47.097Z,5.10
2018-03-17T00:52:13.300Z,5.35
2018-03-17T00:54:39.532Z,4.05
2018-03-17T00:57:05.808Z,2.80
2018-03-17T00:59:31.976Z,2.72
2018-03-17T01:01:58.196Z,2.85
2018-03-17T01:04:24.485Z,3.08
2018-03-17T01:06:50.690Z,3.33
2018-03-17T01:09:16.884Z,3.05
2018-03-17T01:11:43.104Z,4.57
2018-03-17T01:14:09.328Z,3.70
2018-03-17T01:16:36.305Z,3.03
2018-03-17T01:19:02.541Z,3.50
2018-03-17T01:21:28.752Z,3.78
2018-03-17T01:23:54.930Z,4.15
2018-03-17T01:26:21.093Z,3.90
2018-03-17T01:28:47.313Z,3.97
2018-03-17T01:31:14.249Z,4.47
2018-03-17T01:33:41.234Z,4.37
2018-03-17T01:36:07.450Z,4.22
2018-03-17T01:38:33.694Z,3.72
2018-03-17T01:41:00.021Z,4.30
2018-03-17T01:43:26.221Z,4.70
2018-03-17T01:45:52.452Z,5.03
2018-03-17T01:48:18.708Z,4.97
2018-03-17T01:50:44.929Z,5.40
2018-03-17T01:53:11.122Z,5.30
2018-03-17T01:55:37.365Z,5.10
2018-03-17T01:58:03.661Z,5.62
2018-03-17T02:00:29.878Z,4.70
2018-03-17T02:02:56.056Z,6.43
2018-03-17T02:05:22.277Z,5.50
2018-03-17T02:07:48.567Z,5.93
2018-03-17T02:10:14.888Z,6.07
2018-03-17T02:12:41.069Z,6.62
2018-03-17T02:15:07.369Z,6.10
2018-03-17T02:17:34.335Z,6.65
2018-03-17T02:20:00.554Z,6.90
2018-03-17T02:22:27.563Z,7.03
2018-03-17T02:24:53.777Z,6.95
2018-03-17T02:27:20.008Z,7.18
2018-03-17T02:29:46.252Z,7.15
2018-03-17T02:32:12.460Z,7.05
2018-03-17T02:34:38.669Z,8.25
2018-03-17T02:37:04.920Z,7.20
2018-03-17T02:39:31.120Z,7.15
2018-03-17T02:41:57.325Z,7.80
2018-03-17T02:44:24.330Z,10.50
2018-03-17T02:46:50.548Z,10.40
2018-03-17T02:49:16.793Z,11.25
2018-03-17T02:51:42.979Z,12.63
2018-03-17T02:54:09.181Z,14.50
2018-03-17T02:56:36.161Z,14.15
2018-03-17T02:59:02.450Z,13.43
2018-03-17T03:01:29.441Z,13.73
2018-03-17T03:03:55.645Z,16.52
2018-03-17T03:06:21.870Z,14.75
2018-03-17T03:08:48.084Z,14.55
2018-03-17T03:11:14.322Z,14.15
2018-03-17T03:13:40.535Z,14.23
2018-03-17T03:16:07.528Z,15.25
2018-03-17T03:18:33.748Z,15.18
2018-03-17T03:21:00.000Z,14.15
2018-03-17T03:23:26.240Z,13.60
2018-03-17T03:25:52.433Z,12.93
2018-03-17T03:28:18.690Z,14.25
2018-03-17T03:30:44.867Z,14.38
2018-03-17T03:33:11.086Z,16.45
2018-03-17T03:35:38.084Z,15.05
2018-03-17T03:38:04.278Z,19.50
2018-03-17T03:40:30.479Z,19.10
2018-03-17T03:42:57.464Z,16.48
2018-03-17T03:45:23.724Z,19.12
2018-03-17T03:47:49.938Z,20.67
2018-03-17T03:50:16.162Z,18.15
2018-03-17T03:52:42.370Z,18.73
2018-03-17T03:55:08.612Z,18.75
2018-03-17T03:57:34.819Z,20.58
2018-03-17T04:00:01.038Z,20.77
2018-03-17T04:02:27.252Z,20.08
2018-03-17T04:04:54.214Z,21.62
2018-03-17T04:07:20.439Z,20.65
2018-03-17T04:09:46.649Z,20.88
2018-03-17T04:12:13.630Z,19.42
2018-03-17T04:14:39.823Z,20.95
2018-03-17T04:17:06.756Z,19.10
2018-03-17T04:19:32.953Z,20.27
2018-03-17T04:21:59.197Z,18.60
2018-03-17T04:24:25.430Z,18.87
2018-03-17T04:26:51.662Z,17.00
2018-03-17T04:29:17.926Z,17.45
2018-03-17T04:31:44.100Z,18.12
2018-03-17T04:34:10.343Z,19.60
2018-03-17T04:36:36.518Z,18.23
2018-03-17T04:39:02.785Z,17.65
2018-03-17T04:41:28.944Z,17.17
2018-03-17T04:43:55.871Z,17.60
2018-03-17T04:46:22.851Z,19.92
2018-03-17T04:48:49.058Z,18.37
2018-03-17T04:51:15.242Z,18.57
2018-03-17T04:53:41.445Z,20.43
2018-03-17T04:56:07.817Z,23.67
2018-03-17T04:58:34.016Z,21.70
2018-03-17T05:01:00.229Z,23.03
2018-03-17T05:03:26.466Z,23.27
2018-03-17T05:05:52.702Z,25.08
2018-03-17T05:08:18.905Z,30.00
2018-03-17T05:10:45.132Z,30.53
2018-03-17T05:13:11.364Z,30.40
2018-03-17T05:15:37.633Z,29.15
2018-03-17T05:18:03.839Z,30.77
2018-03-17T05:20:30.051Z,31.95
2018-03-17T05:22:56.224Z,30.20
2018-03-17T05:25:22.418Z,30.62
2018-03-17T05:27:48.688Z,32.40
2018-03-17T05:30:14.892Z,28.80
2018-03-17T05:32:41.134Z,32.60
2018-03-17T05:35:07.353Z,29.15
2018-03-17T05:37:33.612Z,32.40
2018-03-17T05:39:59.795Z,32.55
2018-03-17T05:42:26.032Z,34.63
2018-03-17T05:44:52.265Z,32.85
2018-03-17T05:47:18.481Z,35.20
2018-03-17T05:49:44.708Z,34.33
2018-03-17T05:52:10.878Z,33.30
2018-03-17T05:54:37.077Z,31.90
2018-03-17T05:57:03.307Z,31.62
2018-03-17T05:59:29.504Z,32.30
2018-03-17T06:01:55.737Z,33.03
2018-03-17T06:04:22.667Z,32.28
2018-03-17T06:06:48.910Z,32.47
2018-03-17T06:09:15.117Z,33.92
2018-03-17T06:11:41.308Z,32.50
2018-03-17T06:14:07.581Z,32.15
2018-03-17T06:16:34.509Z,33.88
2018-03-17T06:19:01.454Z,35.07
2018-03-17T06:21:27.662Z,31.90
2018-03-17T06:23:54.665Z,31.85
2018-03-17T06:26:20.880Z,29.17
2018-03-17T06:28:47.162Z,29.15
2018-03-17T06:31:13.456Z,27.75
2018-03-17T06:33:39.681Z,28.30
2018-03-17T06:36:05.916Z,27.55
2018-03-17T06:38:32.155Z,28.70
2018-03-17T06:40:58.389Z,27.87
2018-03-17T06:43:24.596Z,28.62
2018-03-17T06:45:50.811Z,27.00
2018-03-17T06:48:17.051Z,26.65
2018-03-17T06:50:43.308Z,28.62
2018-03-17T06:53:09.575Z,27.42
2018-03-17T06:55:35.757Z,26.65
2018-03-17T06:58:01.976Z,26.40
2018-03-17T07:00:28.179Z,25.62
2018-03-17T07:02:54.437Z,25.85
2018-03-17T07:05:20.635Z,25.15
2018-03-17T07:07:46.848Z,26.17
2018-03-17T07:10:13.123Z,26.90
2018-03-17T07:12:39.353Z,26.42
2018-03-17T07:15:05.652Z,27.20
2018-03-17T07:17:31.846Z,26.42
2018-03-17T07:19:58.821Z,25.02
2018-03-17T07:22:25.075Z,25.73
2018-03-17T07:24:51.307Z,26.58
2018-03-17T07:27:17.487Z,26.62
2018-03-17T07:29:43.725Z,27.45
2018-03-17T07:32:09.931Z,27.45
2018-03-17T07:34:36.955Z,29.10
2018-03-17T07:37:03.238Z,27.98
2018-03-17T07:39:29.473Z,29.80
2018-03-17T07:41:55.681Z,29.58
2018-03-17T07:44:21.930Z,30.55
2018-03-17T07:46:48.181Z,31.10
2018-03-17T07:49:14.461Z,29.05
2018-03-17T07:51:40.706Z,30.90
2018-03-17T07:54:06.926Z,31.30
2018-03-17T07:56:33.204Z,29.58
2018-03-17T07:58:59.417Z,30.45
2018-03-17T08:01:25.640Z,29.20
2018-03-17T08:03:51.893Z,31.60
2018-03-17T08:06:18.221Z,29.58
2018-03-17T08:08:44.454Z,29.02
2018-03-17T08:11:10.784Z,31.35
2018-03-17T08:13:37.027Z,29.65
2018-03-17T08:16:04.010Z,29.17
2018-03-17T08:18:30.293Z,32.47
2018-03-17T08:20:56.502Z,30.48
2018-03-17T08:23:22.691Z,30.20
2018-03-17T08:25:48.913Z,29.90
2018-03-17T08:28:15.149Z,29.98
2018-03-17T08:30:41.416Z,28.50
2018-03-17T08:33:07.605Z,29.45
2018-03-17T08:35:33.799Z,29.90
2018-03-17T08:38:00.772Z,28.73
2018-03-17T08:40:26.997Z,28.38
2018-03-17T08:42:53.191Z,30.27
2018-03-17T08:45:19.428Z,29.30
2018-03-17T08:47:46.438Z,29.35
2018-03-17T08:50:12.666Z,29.63
2018-03-17T08:52:38.902Z,29.17
2018-03-17T08:55:05.163Z,29.85
2018-03-17T08:57:31.394Z,29.60
2018-03-17T08:59:58.342Z,31.65
2018-03-17T09:02:24.585Z,27.75
2018-03-17T09:04:50.802Z,31.15
2018-03-17T09:07:17.072Z,29.87
2018-03-17T09:09:43.510Z,29.37
2018-03-17T09:12:09.741Z,29.25
2018-03-17T09:14:35.998Z,29.15
2018-03-17T09:17:03.038Z,29.08
2018-03-17T09:19:29.337Z,28.95
2018-03-17T09:21:55.570Z,30.42
2018-03-17T09:24:21.924Z,28.85
2018-03-17T09:26:48.082Z,29.00
2018-03-17T09:29:14.284Z,29.65
2018-03-17T09:31:40.507Z,29.50
2018-03-17T09:34:06.745Z,31.65
2018-03-17T09:36:34.758Z,31.67
2018-03-17T09:39:00.984Z,32.55
2018-03-17T09:41:27.266Z,28.38
2018-03-17T09:43:53.464Z,29.80
2018-03-17T09:46:19.701Z,30.48
2018-03-17T09:48:45.964Z,30.92
2018-03-17T09:51:12.909Z,30.35
2018-03-17T09:53:39.893Z,31.15
2018-03-17T09:56:06.183Z,31.60
2018-03-17T09:58:32.400Z,33.47
2018-03-17T10:00:59.388Z,30.92
2018-03-17T10:03:25.632Z,29.25
2018-03-17T10:05:51.849Z,27.95
2018-03-17T10:08:18.121Z,29.75
2018-03-17T10:10:44.374Z,30.05
2018-03-17T10:13:11.292Z,29.67
2018-03-17T10:15:37.653Z,30.77
2018-03-17T10:18:03.882Z,30.02
2018-03-17T10:20:30.872Z,30.45
2018-03-17T10:22:57.089Z,30.88
2018-03-17T10:25:23.340Z,30.17
2018-03-17T10:27:49.574Z,33.17
2018-03-17T10:30:15.831Z,31.55
2018-03-17T10:32:42.079Z,30.15
2018-03-17T10:35:08.324Z,31.62
2018-03-17T10:37:34.556Z,30.52
2018-03-17T10:40:00.758Z,30.70
2018-03-17T10:42:27.013Z,29.27
2018-03-17T10:44:53.272Z,27.85
2018-03-17T10:47:19.526Z,28.27
2018-03-17T10:49:46.472Z,31.90
2018-03-17T10:52:12.728Z,30.05
2018-03-17T10:54:38.977Z,29.35
2018-03-17T10:57:13.289Z,28.00
2018-03-17T10:59:39.638Z,30.17
2018-03-17T11:02:05.916Z,29.60
2018-03-17T11:04:32.151Z,30.20
2018-03-17T11:06:58.414Z,30.90
2018-03-17T11:09:25.509Z,28.85
2018-03-17T11:11:52.464Z,30.73
2018-03-17T11:14:19.483Z,30.62
2018-03-17T11:16:46.533Z,31.48
2018-03-17T11:19:12.748Z,30.05
2018-03-17T11:21:39.172Z,29.35
2018-03-17T11:24:05.434Z,29.35
2018-03-17T11:26:32.355Z,29.08
2018-03-17T11:28:58.587Z,29.15
2018-03-17T11:31:24.838Z,28.83
2018-03-17T11:34:15.441Z,26.83
2018-03-17T11:36:43.508Z,28.42
2018-03-17T11:39:10.439Z,28.10
2018-03-17T11:41:44.504Z,29.42
2018-03-17T11:44:10.688Z,29.25
2018-03-17T11:46:36.909Z,29.45
2018-03-17T11:49:03.085Z,31.15
2018-03-17T11:51:29.284Z,30.25
2018-03-17T11:53:56.255Z,30.70
2018-03-17T11:56:22.441Z,26.70
2018-03-17T11:58:49.427Z,27.20
2018-03-17T12:01:15.704Z,28.98
2018-03-17T12:03:41.932Z,29.08
2018-03-17T12:06:08.200Z,32.63
2018-03-17T12:08:34.396Z,33.97
2018-03-17T12:11:00.600Z,29.40
2018-03-17T12:13:26.862Z,27.27
2018-03-17T12:15:53.434Z,28.25
2018-03-17T12:18:19.600Z,29.98
2018-03-17T12:20:45.843Z,29.50
2018-03-17T12:23:12.041Z,28.83
2018-03-17T12:25:38.296Z,27.08
2018-03-17T12:28:04.569Z,29.95
2018-03-17T12:30:30.798Z,28.50
2018-03-17T12:32:57.950Z,29.00
2018-03-17T12:35:24.185Z,28.27
2018-03-17T12:37:50.348Z,28.67
2018-03-17T12:40:16.628Z,27.55
2018-03-17T12:42:42.849Z,28.23
2018-03-17T12:45:09.772Z,28.92
2018-03-17T12:47:36.043Z,28.65
2018-03-17T12:50:02.277Z,28.30
2018-03-17T12:52:28.532Z,27.92
2018-03-17T12:54:54.741Z,27.87
2018-03-17T12:57:20.953Z,28.35
2018-03-17T12:59:47.150Z,24.83
2018-03-17T13:02:14.108Z,28.25
2018-03-17T13:04:40.321Z,26.30
2018-03-17T13:07:07.293Z,26.83
2018-03-17T13:09:33.532Z,28.12
2018-03-17T13:12:01.883Z,27.48
2018-03-17T13:14:28.089Z,26.60
2018-03-17T13:16:54.313Z,26.40
2018-03-17T13:19:29.687Z,25.73
2018-03-17T13:21:57.958Z,26.55
2018-03-17T13:24:24.161Z,26.35
2018-03-17T13:27:02.713Z,25.80
2018-03-17T13:29:28.888Z,25.52
2018-03-17T13:31:55.125Z,24.35
2018-03-17T13:34:21.314Z,25.42
2018-03-17T13:36:59.704Z,26.17
2018-03-17T13:39:25.888Z,24.67
2018-03-17T13:41:52.129Z,24.42
2018-03-17T13:44:19.161Z,24.48
2018-03-17T13:46:45.383Z,24.85
2018-03-17T13:49:11.633Z,28.02
2018-03-17T13:51:37.873Z,23.73
2018-03-17T13:54:04.117Z,24.00
2018-03-17T13:56:30.339Z,23.45
2018-03-17T13:58:57.310Z,24.42
2018-03-17T14:01:25.631Z,23.90
2018-03-17T14:03:51.907Z,23.98
2018-03-17T14:06:18.150Z,23.83
2018-03-17T14:08:44.404Z,23.83
2018-03-17T14:11:10.647Z,23.90
2018-03-17T14:13:36.888Z,21.52
2018-03-17T14:16:03.828Z,22.25
2018-03-17T14:18:30.061Z,21.55
2018-03-17T14:20:56.253Z,23.12
2018-03-17T14:23:22.482Z,21.70
2018-03-17T14:25:48.837Z,23.45
2018-03-17T14:28:15.065Z,22.45
2018-03-17T14:30:41.312Z,22.27
2018-03-17T14:33:08.265Z,21.62
2018-03-17T14:35:34.495Z,22.20
2018-03-17T14:38:01.436Z,19.77
2018-03-17T14:40:28.366Z,21.58
2018-03-17T14:42:54.573Z,20.10
2018-03-17T14:45:20.834Z,21.98
2018-03-17T14:47:47.772Z,21.55
2018-03-17T14:50:15.055Z,22.05
2018-03-17T14:52:41.302Z,22.85
2018-03-17T14:55:07.538Z,22.48
2018-03-17T14:57:33.760Z,22.73
2018-03-17T14:59:59.954Z,21.70
2018-03-17T15:02:26.135Z,23.33
2018-03-17T15:04:52.343Z,23.10
2018-03-17T15:07:18.548Z,20.00
2018-03-17T15:09:44.734Z,22.80
2018-03-17T15:12:10.956Z,23.50
2018-03-17T15:14:37.137Z,21.45
2018-03-17T15:17:03.376Z,22.58
2018-03-17T15:19:29.561Z,22.80
2018-03-17T15:21:56.547Z,22.33
2018-03-17T15:24:22.748Z,23.75
2018-03-17T15:26:49.019Z,23.45
2018-03-17T15:29:15.251Z,20.70
2018-03-17T15:31:41.483Z,22.98
2018-03-17T15:34:07.672Z,23.00
2018-03-17T15:36:33.863Z,23.40
2018-03-17T15:39:00.069Z,23.95
2018-03-17T15:41:26.287Z,22.40
2018-03-17T15:43:52.501Z,22.90
2018-03-17T15:46:18.735Z,23.35
2018-03-17T15:48:44.938Z,23.25
2018-03-17T15:51:11.122Z,23.27
2018-03-17T15:53:37.320Z,24.60
2018-03-17T15:56:03.548Z,23.85
2018-03-17T15:58:29.757Z,21.58
2018-03-17T16:00:55.984Z,23.80
2018-03-17T16:03:22.217Z,24.92
2018-03-17T16:05:48.456Z,23.42
2018-03-17T16:08:14.662Z,24.73
2018-03-17T16:10:40.916Z,24.87
2018-03-17T16:13:07.122Z,22.95
2018-03-17T16:15:33.329Z,24.50
2018-03-17T16:18:00.306Z,24.85
2018-03-17T16:20:26.516Z,24.40
2018-03-17T16:22:52.712Z,24.23
2018-03-17T16:25:19.678Z,23.50
2018-03-17T16:27:45.932Z,24.08
2018-03-17T16:30:12.182Z,23.50
2018-03-17T16:32:38.386Z,23.87
2018-03-17T16:35:04.596Z,24.65
2018-03-17T16:37:30.822Z,24.20
2018-03-17T16:39:57.057Z,24.67
2018-03-17T16:42:23.312Z,23.30
2018-03-17T16:44:49.552Z,24.50
2018-03-17T16:47:16.178Z,24.65
2018-03-17T16:49:42.409Z,23.75
2018-03-17T16:52:08.685Z,23.25
2018-03-17T16:54:34.960Z,24.15
2018-03-17T16:57:01.158Z,24.00
2018-03-17T16:59:27.389Z,23.58
2018-03-17T17:01:53.622Z,23.67
2018-03-17T17:04:19.826Z,24.12
2018-03-17T17:06:46.744Z,23.60
2018-03-17T17:09:12.949Z,24.65
2018-03-17T17:11:39.176Z,25.67
2018-03-17T17:14:05.402Z,23.87
2018-03-17T17:16:31.572Z,25.50
2018-03-17T17:18:58.550Z,24.05
2018-03-17T17:21:24.768Z,25.45
2018-03-17T17:23:50.920Z,25.62
2018-03-17T17:26:17.142Z,25.77
2018-03-17T17:28:43.402Z,23.85
2018-03-17T17:31:09.646Z,27.60
2018-03-17T17:33:35.852Z,25.75
2018-03-17T17:36:02.061Z,25.33
2018-03-17T17:38:28.284Z,25.45
2018-03-17T17:40:54.484Z,24.58
2018-03-17T17:43:21.399Z,24.67
2018-03-17T17:45:47.660Z,25.77
2018-03-17T17:48:14.584Z,26.42
2018-03-17T17:50:41.537Z,25.40
2018-03-17T17:53:07.786Z,24.15
2018-03-17T17:55:34.000Z,26.02
2018-03-17T17:58:00.942Z,27.73
2018-03-17T18:00:27.884Z,25.98
2018-03-17T18:02:54.842Z,27.65
2018-03-17T18:05:21.094Z,25.60
2018-03-17T18:07:47.315Z,27.15
2018-03-17T18:10:13.494Z,27.45
2018-03-17T18:12:39.701Z,26.95
2018-03-17T18:15:05.901Z,23.75
2018-03-17T18:17:32.053Z,26.87
2018-03-17T18:19:58.212Z,24.73
2018-03-17T18:22:24.419Z,26.62
2018-03-17T18:24:50.617Z,25.23
2018-03-17T18:27:16.865Z,28.25
2018-03-17T18:29:43.040Z,25.60
2018-03-17T18:32:10.004Z,27.87
2018-03-17T18:34:36.246Z,24.85
2018-03-17T18:37:02.444Z,25.67
2018-03-17T18:39:28.674Z,25.98
2018-03-17T18:41:54.872Z,26.33
2018-03-17T18:44:21.075Z,26.33
2018-03-17T18:46:47.292Z,25.33
2018-03-17T18:49:13.468Z,24.17
2018-03-17T18:51:39.716Z,26.98
2018-03-17T18:54:05.894Z,25.85
2018-03-17T18:56:32.147Z,26.30
2018-03-17T18:58:59.061Z,27.50
2018-03-17T19:01:25.257Z,26.17
2018-03-17T19:03:51.559Z,25.75
2018-03-17T19:06:18.509Z,26.17
2018-03-17T19:08:45.439Z,25.95
2018-03-17T19:11:12.372Z,27.00
2018-03-17T19:13:38.590Z,24.90
2018-03-17T19:16:04.859Z,26.37
2018-03-17T19:18:31.077Z,27.85
2018-03-17T19:20:58.048Z,25.50
2018-03-17T19:23:24.281Z,25.60
2018-03-17T19:25:50.541Z,25.40
2018-03-17T19:28:16.720Z,25.77
2018-03-17T19:30:42.913Z,25.55
2018-03-17T19:33:09.122Z,24.48
2018-03-17T19:35:35.374Z,24.83
2018-03-17T19:38:01.588Z,26.00
2018-03-17T19:40:27.821Z,25.33
2018-03-17T19:42:54.033Z,23.87
2018-03-17T19:45:20.265Z,24.15
2018-03-17T19:47:46.477Z,26.08
2018-03-17T19:50:12.678Z,25.12
2018-03-17T19:52:38.917Z,24.02
2018-03-17T19:55:05.171Z,24.70
2018-03-17T19:57:31.381Z,24.83
2018-03-17T19:59:57.628Z,25.02
2018-03-17T20:02:23.863Z,25.08
2018-03-17T20:04:50.080Z,26.23
2018-03-17T20:07:16.410Z,25.70
2018-03-17T20:09:42.643Z,25.35
2018-03-17T20:12:08.868Z,25.05
2018-03-17T20:14:35.174Z,27.90
2018-03-17T20:17:01.408Z,28.83
2018-03-17T20:19:27.654Z,26.02
2018-03-17T20:21:53.852Z,25.45
2018-03-17T20:24:21.154Z,24.83
2018-03-17T20:26:47.380Z,25.73
2018-03-17T20:29:13.615Z,27.27
2018-03-17T20:31:39.870Z,26.70
2018-03-17T20:34:06.853Z,25.48
2018-03-17T20:36:33.056Z,26.67
2018-03-17T20:38:59.273Z,26.42
2018-03-17T20:41:25.509Z,25.98
2018-03-17T20:43:51.820Z,25.95
2018-03-17T20:46:18.810Z,26.12
2018-03-17T20:48:45.020Z,25.70
2018-03-17T20:51:11.291Z,23.48
2018-03-17T20:53:37.517Z,24.85
2018-03-17T20:56:03.766Z,24.15
2018-03-17T20:58:30.995Z,24.15
2018-03-17T21:00:57.213Z,25.70
2018-03-17T21:03:23.411Z,24.63
2018-03-17T21:05:49.592Z,23.42
2018-03-17T21:08:15.869Z,24.58
2018-03-17T21:10:42.179Z,25.58
2018-03-17T21:13:08.417Z,24.05
2018-03-17T21:15:34.604Z,26.40
2018-03-17T21:18:00.815Z,25.55
2018-03-17T21:20:27.077Z,24.67
2018-03-17T21:22:54.018Z,25.25
2018-03-17T21:25:20.984Z,25.58
2018-03-17T21:27:47.255Z,25.70
2018-03-17T21:30:13.450Z,23.95
2018-03-17T21:32:39.692Z,26.12
2018-03-17T21:35:05.935Z,27.23
2018-03-17T21:37:32.125Z,24.80
2018-03-17T21:39:59.377Z,25.10
2018-03-17T21:42:27.042Z,25.70
2018-03-17T21:44:54.087Z,26.25
2018-03-17T21:47:20.339Z,26.52
2018-03-17T21:49:46.572Z,27.15
2018-03-17T21:52:12.816Z,27.23
2018-03-17T21:54:39.017Z,28.62
2018-03-17T21:57:05.270Z,26.20
2018-03-17T21:59:31.482Z,26.87
2018-03-17T22:01:57.733Z,28.35
2018-03-17T22:04:23.972Z,28.12
2018-03-17T22:09:48.943Z,26.87
2018-03-17T22:12:15.424Z,27.67
2018-03-17T22:14:41.652Z,29.52
2018-03-17T22:17:07.844Z,27.65
2018-03-17T22:19:34.085Z,29.02
2018-03-17T22:22:01.080Z,29.70
2018-03-17T22:24:27.261Z,28.65
2018-03-17T22:26:54.489Z,28.50
2018-03-17T22:29:20.671Z,30.05
2018-03-17T22:31:50.371Z,30.70
2018-03-17T22:34:17.313Z,31.40
2018-03-17T22:36:43.550Z,28.90
2018-03-17T22:39:09.753Z,28.27
2018-03-17T22:41:36.706Z,30.40
2018-03-17T22:44:02.986Z,28.77
2018-03-17T22:46:29.213Z,28.90
2018-03-17T23:28:45.037Z,30.48
2018-03-17T23:31:11.275Z,29.27
2018-03-17T23:33:37.480Z,30.42
2018-03-17T23:36:03.775Z,30.08
2018-03-17T23:38:29.990Z,29.65
2018-03-17T23:40:56.208Z,29.20
2018-03-17T23:43:22.454Z,30.75
2018-03-17T23:45:48.676Z,32.10
2018-03-17T23:48:14.927Z,28.45
2018-03-17T23:50:41.901Z,30.23
2018-03-17T23:53:08.128Z,29.90
2018-03-17T23:55:34.424Z,28.27
2018-03-17T23:58:01.378Z,30.25
